Nelson, Canada
Current Conditions -  °F | °C
As of 5:00 PM on Thursday 18 Dec 2014 (Local Time) from CYCG Reporting Station
Haze Haze  
Wind Chill: 34°   Ceiling: 2600
Heat Index: 34°   Visibility: 6mi
Dew Point: 34°   Wind: 3mph
Humidity: 100%   Direction: 150°SSE
Pressure: 29.98"   Gusts: NA
Location:  49.48°N, 117.28°W
Report Text: CYCG 190100Z 15003KT 110V180 6SM BR FEW004 BKN026 OVC035 01/01 A2998 RMK SF2SC4SC2 LAST OBS/NEXT 191400 UTC SLP172
Loading
Personal Weather Stations






























Interactive Weather Map New forecast layout! Learn more

10-Day Weather Forecast

Advertisements
Track Severe Weather on mobile